sensor_id;sensor_type;location;lat;lon;timestamp;pressure;altitude;pressure_sealevel;temperature;humidity
35519;BME280;21627;48.216;16.482;2024-03-25T00:00:25;98777.31;;;5.99;100.00
35519;BME280;21627;48.216;16.482;2024-03-25T00:02:51;98776.41;;;5.91;100.00
35519;BME280;21627;48.216;16.482;2024-03-25T00:05:17;98759.34;;;5.96;100.00
35519;BME280;21627;48.216;16.482;2024-03-25T00:07:52;98754.22;;;5.99;100.00
35519;BME280;21627;48.216;16.482;2024-03-25T00:10:18;98761.09;;;6.05;100.00
35519;BME280;21627;48.216;16.482;2024-03-25T00:12:49;98763.66;;;6.05;100.00
35519;BME280;21627;48.216;16.482;2024-03-25T00:15:20;98765.34;;;6.01;100.00
35519;BME280;21627;48.216;16.482;2024-03-25T00:17:47;98769.63;;;6.02;100.00
35519;BME280;21627;48.216;16.482;2024-03-25T00:20:14;98758.50;;;6.03;99.99
35519;BME280;21627;48.216;16.482;2024-03-25T00:22:41;98757.66;;;6.03;99.56
35519;BME280;21627;48.216;16.482;2024-03-25T00:25:08;98749.06;;;5.96;99.74
35519;BME280;21627;48.216;16.482;2024-03-25T00:27:35;98773.03;;;6.04;99.28
35519;BME280;21627;48.216;16.482;2024-03-25T00:30:01;98759.38;;;6.09;99.24
35519;BME280;21627;48.216;16.482;2024-03-25T00:32:27;98751.66;;;5.99;99.83
35519;BME280;21627;48.216;16.482;2024-03-25T00:34:53;98757.63;;;6.01;99.48
35519;BME280;21627;48.216;16.482;2024-03-25T00:37:19;98748.22;;;5.99;99.07
35519;BME280;21627;48.216;16.482;2024-03-25T00:39:45;98754.25;;;6.02;99.19
35519;BME280;21627;48.216;16.482;2024-03-25T00:42:12;98752.50;;;6.01;99.79
35519;BME280;21627;48.216;16.482;2024-03-25T00:44:38;98752.50;;;5.98;100.00
35519;BME280;21627;48.216;16.482;2024-03-25T00:47:04;98758.53;;;6.05;99.93
35519;BME280;21627;48.216;16.482;2024-03-25T00:49:30;98749.97;;;6.03;99.37
35519;BME280;21627;48.216;16.482;2024-03-25T00:51:56;98743.13;;;6.03;100.00
35519;BME280;21627;48.216;16.482;2024-03-25T00:54:22;98748.25;;;6.03;100.00
35519;BME280;21627;48.216;16.482;2024-03-25T00:56:50;98753.41;;;6.13;100.00
35519;BME280;21627;48.216;16.482;2024-03-25T00:59:17;98746.53;;;6.07;100.00
35519;BME280;21627;48.216;16.482;2024-03-25T01:01:43;98739.69;;;5.95;100.00
35519;BME280;21627;48.216;16.482;2024-03-25T01:04:10;98743.13;;;6.00;100.00
35519;BME280;21627;48.216;16.482;2024-03-25T01:06:36;98745.69;;;6.00;100.00
35519;BME280;21627;48.216;16.482;2024-03-25T01:09:02;98743.09;;;6.02;100.00
35519;BME280;21627;48.216;16.482;2024-03-25T01:11:30;98743.13;;;5.97;100.00
35519;BME280;21627;48.216;16.482;2024-03-25T01:13:56;98749.97;;;6.00;100.00
35519;BME280;21627;48.216;16.482;2024-03-25T01:16:22;98737.13;;;6.01;100.00
35519;BME280;21627;48.216;16.482;2024-03-25T01:18:49;98728.59;;;6.10;100.00
35519;BME280;21627;48.216;16.482;2024-03-25T01:21:15;98737.97;;;6.03;100.00
35519;BME280;21627;48.216;16.482;2024-03-25T01:23:41;98737.97;;;5.97;100.00
35519;BME280;21627;48.216;16.482;2024-03-25T01:26:07;98735.38;;;5.94;100.00
35519;BME280;21627;48.216;16.482;2024-03-25T01:28:33;98733.69;;;5.96;100.00
35519;BME280;21627;48.216;16.482;2024-03-25T01:30:59;98726.00;;;5.95;100.00
35519;BME280;21627;48.216;16.482;2024-03-25T01:33:25;98728.56;;;5.98;100.00
35519;BME280;21627;48.216;16.482;2024-03-25T01:35:51;98738.84;;;6.02;100.00
35519;BME280;21627;48.216;16.482;2024-03-25T01:38:18;98737.16;;;6.07;100.00
35519;BME280;21627;48.216;16.482;2024-03-25T01:40:44;98732.84;;;6.06;100.00
35519;BME280;21627;48.216;16.482;2024-03-25T01:43:11;98738.84;;;5.98;100.00
35519;BME280;21627;48.216;16.482;2024-03-25T01:45:37;98734.56;;;6.01;100.00
35519;BME280;21627;48.216;16.482;2024-03-25T01:48:07;98732.84;;;5.97;100.00
35519;BME280;21627;48.216;16.482;2024-03-25T01:50:43;98743.97;;;6.05;100.00
35519;BME280;21627;48.216;16.482;2024-03-25T01:53:12;98748.25;;;6.06;100.00
35519;BME280;21627;48.216;16.482;2024-03-25T01:55:40;98745.69;;;6.06;100.00
35519;BME280;21627;48.216;16.482;2024-03-25T01:58:07;98733.72;;;6.05;100.00
35519;BME280;21627;48.216;16.482;2024-03-25T02:00:34;98743.09;;;5.99;100.00
35519;BME280;21627;48.216;16.482;2024-03-25T02:03:01;98752.53;;;6.03;100.00
35519;BME280;21627;48.216;16.482;2024-03-25T02:05:27;98750.81;;;6.05;100.00
35519;BME280;21627;48.216;16.482;2024-03-25T02:07:54;98750.81;;;6.03;100.00
35519;BME280;21627;48.216;16.482;2024-03-25T02:10:21;98745.69;;;5.97;100.00
35519;BME280;21627;48.216;16.482;2024-03-25T02:12:49;98750.78;;;5.99;100.00
35519;BME280;21627;48.216;16.482;2024-03-25T02:15:15;98745.69;;;5.97;100.00
35519;BME280;21627;48.216;16.482;2024-03-25T02:17:42;98754.22;;;5.96;100.00
35519;BME280;21627;48.216;16.482;2024-03-25T02:20:09;98755.94;;;5.99;100.00
35519;BME280;21627;48.216;16.482;2024-03-25T02:22:36;98746.47;;;5.85;100.00
35519;BME280;21627;48.216;16.482;2024-03-25T02:25:06;98740.50;;;5.94;100.00
35519;BME280;21627;48.216;16.482;2024-03-25T02:27:38;98747.31;;;5.80;100.00
35519;BME280;21627;48.216;16.482;2024-03-25T02:30:09;98737.06;;;5.83;100.00
35519;BME280;21627;48.216;16.482;2024-03-25T02:32:40;98741.28;;;5.70;100.00
35519;BME280;21627;48.216;16.482;2024-03-25T02:35:11;98743.00;;;5.73;100.00
35519;BME280;21627;48.216;16.482;2024-03-25T02:37:39;98742.97;;;5.67;100.00
35519;BME280;21627;48.216;16.482;2024-03-25T02:40:06;98745.56;;;5.71;100.00
35519;BME280;21627;48.216;16.482;2024-03-25T02:42:33;98750.63;;;5.59;100.00
35519;BME280;21627;48.216;16.482;2024-03-25T02:45:00;98742.91;;;5.54;100.00
35519;BME280;21627;48.216;16.482;2024-03-25T02:47:26;98742.94;;;5.50;100.00
35519;BME280;21627;48.216;16.482;2024-03-25T02:49:52;98745.50;;;5.54;100.00
35519;BME280;21627;48.216;16.482;2024-03-25T02:52:19;98735.25;;;5.57;100.00
35519;BME280;21627;48.216;16.482;2024-03-25T02:54:46;98733.53;;;5.56;100.00
35519;BME280;21627;48.216;16.482;2024-03-25T02:57:12;98741.22;;;5.52;100.00
35519;BME280;21627;48.216;16.482;2024-03-25T02:59:38;98744.66;;;5.52;100.00
35519;BME280;21627;48.216;16.482;2024-03-25T03:02:04;98739.50;;;5.54;100.00
35519;BME280;21627;48.216;16.482;2024-03-25T03:04:30;98743.78;;;5.56;100.00
35519;BME280;21627;48.216;16.482;2024-03-25T03:06:59;98748.09;;;5.57;100.00
35519;BME280;21627;48.216;16.482;2024-03-25T03:09:25;98739.50;;;5.51;100.00
35519;BME280;21627;48.216;16.482;2024-03-25T03:11:51;98749.75;;;5.51;100.00
35519;BME280;21627;48.216;16.482;2024-03-25T03:14:17;98748.91;;;5.50;100.00
35519;BME280;21627;48.216;16.482;2024-03-25T03:16:44;98744.63;;;5.45;100.00
35519;BME280;21627;48.216;16.482;2024-03-25T03:19:10;98748.84;;;5.41;100.00
35519;BME280;21627;48.216;16.482;2024-03-25T03:21:36;98748.00;;;5.40;100.00
35519;BME280;21627;48.216;16.482;2024-03-25T03:24:03;98751.41;;;5.38;100.00
35519;BME280;21627;48.216;16.482;2024-03-25T03:26:30;98763.34;;;5.31;100.00
35519;BME280;21627;48.216;16.482;2024-03-25T03:28:57;98748.88;;;5.39;100.00
35519;BME280;21627;48.216;16.482;2024-03-25T03:31:23;98748.84;;;5.32;100.00
35519;BME280;21627;48.216;16.482;2024-03-25T03:33:50;98741.13;;;5.33;100.00
35519;BME280;21627;48.216;16.482;2024-03-25T03:36:19;98749.63;;;5.23;100.00
35519;BME280;21627;48.216;16.482;2024-03-25T03:38:46;98748.78;;;5.29;100.00
35519;BME280;21627;48.216;16.482;2024-03-25T03:41:12;98759.88;;;5.26;100.00
35519;BME280;21627;48.216;16.482;2024-03-25T03:43:39;98750.56;;;5.37;100.00
35519;BME280;21627;48.216;16.482;2024-03-25T03:46:05;98748.84;;;5.36;100.00
35519;BME280;21627;48.216;16.482;2024-03-25T03:48:32;98750.56;;;5.43;100.00
35519;BME280;21627;48.216;16.482;2024-03-25T03:50:58;98756.56;;;5.41;100.00
35519;BME280;21627;48.216;16.482;2024-03-25T03:53:24;98761.69;;;5.42;100.00
35519;BME280;21627;48.216;16.482;2024-03-25T03:55:57;98753.13;;;5.37;100.00
35519;BME280;21627;48.216;16.482;2024-03-25T03:58:25;98755.69;;;5.34;100.00
35519;BME280;21627;48.216;16.482;2024-03-25T04:00:51;98759.09;;;5.38;100.00
35519;BME280;21627;48.216;16.482;2024-03-25T04:03:19;98748.81;;;5.33;100.00
35519;BME280;21627;48.216;16.482;2024-03-25T04:05:45;98751.44;;;5.39;100.00
35519;BME280;21627;48.216;16.482;2024-03-25T04:08:12;98754.03;;;5.50;100.00
35519;BME280;21627;48.216;16.482;2024-03-25T04:10:39;98758.38;;;5.65;100.00
35519;BME280;21627;48.216;16.482;2024-03-25T04:13:07;98750.63;;;5.59;100.00
35519;BME280;21627;48.216;16.482;2024-03-25T04:15:38;98760.06;;;5.57;100.00
35519;BME280;21627;48.216;16.482;2024-03-25T04:18:04;98760.94;;;5.62;100.00
35519;BME280;21627;48.216;16.482;2024-03-25T04:20:41;98765.22;;;5.64;100.00
35519;BME280;21627;48.216;16.482;2024-03-25T04:23:08;98760.91;;;5.57;100.00
35519;BME280;21627;48.216;16.482;2024-03-25T04:25:35;98772.03;;;5.62;100.00
35519;BME280;21627;48.216;16.482;2024-03-25T04:28:07;98774.59;;;5.62;100.00
35519;BME280;21627;48.216;16.482;2024-03-25T04:30:33;98772.91;;;5.74;100.00
35519;BME280;21627;48.216;16.482;2024-03-25T04:33:00;98772.88;;;5.60;100.00
35519;BME280;21627;48.216;16.482;2024-03-25T04:35:27;98772.06;;;5.73;100.00
35519;BME280;21627;48.216;16.482;2024-03-25T04:37:53;98769.53;;;5.75;100.00
35519;BME280;21627;48.216;16.482;2024-03-25T04:40:23;98762.66;;;5.68;100.00
35519;BME280;21627;48.216;16.482;2024-03-25T04:42:49;98754.09;;;5.69;100.00
35519;BME280;21627;48.216;16.482;2024-03-25T04:45:15;98763.50;;;5.67;100.00
35519;BME280;21627;48.216;16.482;2024-03-25T04:47:41;98754.09;;;5.67;100.00
35519;BME280;21627;48.216;16.482;2024-03-25T04:50:08;98773.75;;;5.65;100.00
35519;BME280;21627;48.216;16.482;2024-03-25T04:52:35;98774.59;;;5.61;100.00
35519;BME280;21627;48.216;16.482;2024-03-25T04:55:02;98792.50;;;5.56;100.00
35519;BME280;21627;48.216;16.482;2024-03-25T04:57:28;98790.81;;;5.61;100.00
35519;BME280;21627;48.216;16.482;2024-03-25T04:59:54;98780.56;;;5.61;100.00
35519;BME280;21627;48.216;16.482;2024-03-25T05:02:20;98796.00;;;5.71;100.00
35519;BME280;21627;48.216;16.482;2024-03-25T05:04:46;98803.72;;;5.78;100.00
35519;BME280;21627;48.216;16.482;2024-03-25T05:07:12;98803.72;;;5.75;100.00
35519;BME280;21627;48.216;16.482;2024-03-25T05:09:39;98808.81;;;5.71;100.00
35519;BME280;21627;48.216;16.482;2024-03-25T05:12:05;98817.41;;;5.82;100.00
35519;BME280;21627;48.216;16.482;2024-03-25T05:14:31;98830.31;;;5.94;100.00
35519;BME280;21627;48.216;16.482;2024-03-25T05:16:57;98833.66;;;5.87;100.00
35519;BME280;21627;48.216;16.482;2024-03-25T05:19:23;98831.09;;;5.87;100.00
35519;BME280;21627;48.216;16.482;2024-03-25T05:21:50;98839.66;;;5.86;100.00
35519;BME280;21627;48.216;16.482;2024-03-25T05:24:16;98837.16;;;5.97;100.00
35519;BME280;21627;48.216;16.482;2024-03-25T05:26:42;98824.34;;;5.98;100.00
35519;BME280;21627;48.216;16.482;2024-03-25T05:29:08;98828.56;;;5.90;100.00
35519;BME280;21627;48.216;16.482;2024-03-25T05:31:34;98826.91;;;5.97;100.00
35519;BME280;21627;48.216;16.482;2024-03-25T05:34:00;98831.22;;;6.05;100.00
35519;BME280;21627;48.216;16.482;2024-03-25T05:36:28;98831.22;;;6.15;100.00
35519;BME280;21627;48.216;16.482;2024-03-25T05:38:54;98826.09;;;6.05;100.00
35519;BME280;21627;48.216;16.482;2024-03-25T05:41:21;98831.22;;;6.15;100.00
35519;BME280;21627;48.216;16.482;2024-03-25T05:43:47;98835.50;;;6.17;100.00
35519;BME280;21627;48.216;16.482;2024-03-25T05:46:13;98817.56;;;6.19;100.00
35519;BME280;21627;48.216;16.482;2024-03-25T05:48:39;98823.53;;;6.13;100.00
35519;BME280;21627;48.216;16.482;2024-03-25T05:51:06;98826.97;;;6.17;100.00
35519;BME280;21627;48.216;16.482;2024-03-25T05:53:35;98826.13;;;6.21;100.00
35519;BME280;21627;48.216;16.482;2024-03-25T05:56:02;98833.84;;;6.25;100.00
35519;BME280;21627;48.216;16.482;2024-03-25T05:58:28;98833.00;;;6.45;100.00
35519;BME280;21627;48.216;16.482;2024-03-25T06:00:54;98833.91;;;6.53;99.09
35519;BME280;21627;48.216;16.482;2024-03-25T06:03:21;98833.00;;;6.45;99.30
35519;BME280;21627;48.216;16.482;2024-03-25T06:05:48;98842.47;;;6.67;98.04
35519;BME280;21627;48.216;16.482;2024-03-25T06:08:14;98850.19;;;6.63;99.29
35519;BME280;21627;48.216;16.482;2024-03-25T06:10:51;98847.63;;;6.66;98.64
35519;BME280;21627;48.216;16.482;2024-03-25T06:13:18;98845.91;;;6.74;96.87
35519;BME280;21627;48.216;16.482;2024-03-25T06:15:44;98854.47;;;6.96;100.00
35519;BME280;21627;48.216;16.482;2024-03-25T06:18:11;98860.50;;;6.90;96.48
35519;BME280;21627;48.216;16.482;2024-03-25T06:20:37;98860.47;;;6.87;95.49
35519;BME280;21627;48.216;16.482;2024-03-25T06:23:04;98865.59;;;6.92;95.65
35519;BME280;21627;48.216;16.482;2024-03-25T06:25:30;98871.63;;;6.99;95.98
35519;BME280;21627;48.216;16.482;2024-03-25T06:27:56;98875.91;;;6.97;94.58
35519;BME280;21627;48.216;16.482;2024-03-25T06:30:23;98880.19;;;7.11;93.47
35519;BME280;21627;48.216;16.482;2024-03-25T06:33:08;98876.72;;;7.08;94.75
35519;BME280;21627;48.216;16.482;2024-03-25T06:35:52;98869.03;;;7.14;94.86
35519;BME280;21627;48.216;16.482;2024-03-25T06:38:19;98875.91;;;7.04;94.22
35519;BME280;21627;48.216;16.482;2024-03-25T06:40:45;98874.19;;;7.14;94.54
35519;BME280;21627;48.216;16.482;2024-03-25T06:43:12;98875.03;;;7.14;94.84
35519;BME280;21627;48.216;16.482;2024-03-25T06:45:38;98870.72;;;7.32;94.08
35519;BME280;21627;48.216;16.482;2024-03-25T06:48:05;98876.72;;;7.37;93.55
35519;BME280;21627;48.216;16.482;2024-03-25T06:50:31;98870.72;;;7.41;91.15
35519;BME280;21627;48.216;16.482;2024-03-25T06:52:57;98874.13;;;7.48;90.91
35519;BME280;21627;48.216;16.482;2024-03-25T06:55:24;98890.44;;;7.51;90.34
35519;BME280;21627;48.216;16.482;2024-03-25T06:57:53;98885.28;;;7.59;89.52
35519;BME280;21627;48.216;16.482;2024-03-25T07:00:20;98884.44;;;7.54;90.82
35519;BME280;21627;48.216;16.482;2024-03-25T07:02:51;98886.97;;;7.60;89.77
35519;BME280;21627;48.216;16.482;2024-03-25T07:05:17;98888.66;;;7.75;89.31
35519;BME280;21627;48.216;16.482;2024-03-25T07:07:43;98890.31;;;7.88;86.59
35519;BME280;21627;48.216;16.482;2024-03-25T07:10:09;98892.88;;;7.96;86.93
35519;BME280;21627;48.216;16.482;2024-03-25T07:12:35;98898.88;;;8.02;87.47
35519;BME280;21627;48.216;16.482;2024-03-25T07:15:01;98891.94;;;8.14;84.92
35519;BME280;21627;48.216;16.482;2024-03-25T07:17:28;98884.19;;;8.23;82.86
35519;BME280;21627;48.216;16.482;2024-03-25T07:19:54;98889.34;;;8.29;81.65
35519;BME280;21627;48.216;16.482;2024-03-25T07:22:20;98895.31;;;8.28;81.76
35519;BME280;21627;48.216;16.482;2024-03-25T07:24:47;98894.50;;;8.23;82.81
35519;BME280;21627;48.216;16.482;2024-03-25T07:27:13;98889.34;;;8.29;82.11
35519;BME280;21627;48.216;16.482;2024-03-25T07:29:39;98895.38;;;8.17;81.42
35519;BME280;21627;48.216;16.482;2024-03-25T07:32:06;98899.63;;;8.29;81.75
35519;BME280;21627;48.216;16.482;2024-03-25T07:34:32;98899.59;;;8.44;81.10
35519;BME280;21627;48.216;16.482;2024-03-25T07:36:58;98904.59;;;8.71;79.59
35519;BME280;21627;48.216;16.482;2024-03-25T07:39:24;98903.66;;;8.79;78.55
35519;BME280;21627;48.216;16.482;2024-03-25T07:41:50;98911.31;;;8.93;78.47
35519;BME280;21627;48.216;16.482;2024-03-25T07:44:16;98905.16;;;9.09;76.53
35519;BME280;21627;48.216;16.482;2024-03-25T07:46:42;98906.00;;;9.13;73.82
35519;BME280;21627;48.216;16.482;2024-03-25T07:49:09;98902.56;;;9.16;74.63
35519;BME280;21627;48.216;16.482;2024-03-25T07:51:35;98914.63;;;9.10;74.80
35519;BME280;21627;48.216;16.482;2024-03-25T07:54:02;98917.91;;;9.31;75.98
35519;BME280;21627;48.216;16.482;2024-03-25T07:56:31;98918.66;;;9.42;71.85
35519;BME280;21627;48.216;16.482;2024-03-25T07:58:58;98922.84;;;9.56;73.51
35519;BME280;21627;48.216;16.482;2024-03-25T08:01:25;98929.53;;;9.77;71.17
35519;BME280;21627;48.216;16.482;2024-03-25T08:03:51;98926.81;;;9.90;68.26
35519;BME280;21627;48.216;16.482;2024-03-25T08:06:18;98927.50;;;10.06;68.25
35519;BME280;21627;48.216;16.482;2024-03-25T08:08:47;98922.81;;;10.39;69.75
35519;BME280;21627;48.216;16.482;2024-03-25T08:11:13;98926.81;;;10.63;66.37
35519;BME280;21627;48.216;16.482;2024-03-25T08:13:39;98932.81;;;10.65;65.36
35519;BME280;21627;48.216;16.482;2024-03-25T08:16:06;98920.06;;;10.53;64.58
35519;BME280;21627;48.216;16.482;2024-03-25T08:18:32;98928.00;;;10.39;63.61
35519;BME280;21627;48.216;16.482;2024-03-25T08:20:58;98919.88;;;10.65;66.73
35519;BME280;21627;48.216;16.482;2024-03-25T08:23:24;98936.97;;;10.75;64.36
35519;BME280;21627;48.216;16.482;2024-03-25T08:25:50;98941.28;;;10.76;62.72
35519;BME280;21627;48.216;16.482;2024-03-25T08:28:17;98940.47;;;10.73;61.20
35519;BME280;21627;48.216;16.482;2024-03-25T08:30:43;98950.75;;;10.77;61.04
35519;BME280;21627;48.216;16.482;2024-03-25T08:33:09;98936.75;;;10.94;61.42
35519;BME280;21627;48.216;16.482;2024-03-25T08:35:35;98941.38;;;11.29;62.92
35519;BME280;21627;48.216;16.482;2024-03-25T08:38:01;98948.09;;;11.39;58.95
35519;BME280;21627;48.216;16.482;2024-03-25T08:40:27;98952.59;;;11.28;57.91
35519;BME280;21627;48.216;16.482;2024-03-25T08:42:53;98951.00;;;11.19;59.63
35519;BME280;21627;48.216;16.482;2024-03-25T08:45:19;98952.09;;;11.03;60.57
35519;BME280;21627;48.216;16.482;2024-03-25T08:47:46;98947.78;;;11.05;59.83
35519;BME280;21627;48.216;16.482;2024-03-25T08:50:12;98962.50;;;10.98;59.96
35519;BME280;21627;48.216;16.482;2024-03-25T08:52:38;98952.09;;;11.04;61.68
35519;BME280;21627;48.216;16.482;2024-03-25T08:55:06;98942.66;;;11.00;57.70
35519;BME280;21627;48.216;16.482;2024-03-25T08:57:33;98948.56;;;11.09;59.05
35519;BME280;21627;48.216;16.482;2024-03-25T08:59:59;98950.59;;;10.90;59.70
35519;BME280;21627;48.216;16.482;2024-03-25T09:02:25;98953.84;;;11.04;58.19
35519;BME280;21627;48.216;16.482;2024-03-25T09:04:51;98958.59;;;11.32;55.53
35519;BME280;21627;48.216;16.482;2024-03-25T09:07:18;98968.25;;;11.72;57.11
35519;BME280;21627;48.216;16.482;2024-03-25T09:09:45;98967.50;;;12.16;58.92
35519;BME280;21627;48.216;16.482;2024-03-25T09:12:29;98961.19;;;12.29;54.49
35519;BME280;21627;48.216;16.482;2024-03-25T09:14:55;98955.50;;;12.54;55.74
35519;BME280;21627;48.216;16.482;2024-03-25T09:17:21;98953.84;;;12.51;54.23
35519;BME280;21627;48.216;16.482;2024-03-25T09:19:49;98950.47;;;12.48;55.60
35519;BME280;21627;48.216;16.482;2024-03-25T09:22:15;98957.63;;;12.35;53.24
35519;BME280;21627;48.216;16.482;2024-03-25T09:24:41;98962.38;;;12.13;53.73
35519;BME280;21627;48.216;16.482;2024-03-25T09:27:07;98949.41;;;12.13;53.61
35519;BME280;21627;48.216;16.482;2024-03-25T09:29:33;98965.34;;;11.91;55.71
35519;BME280;21627;48.216;16.482;2024-03-25T09:31:59;98965.66;;;11.72;55.69
35519;BME280;21627;48.216;16.482;2024-03-25T09:34:25;98963.13;;;11.68;55.91
35519;BME280;21627;48.216;16.482;2024-03-25T09:36:51;98973.69;;;11.59;55.60
35519;BME280;21627;48.216;16.482;2024-03-25T09:39:18;98972.44;;;11.82;53.47
35519;BME280;21627;48.216;16.482;2024-03-25T09:41:47;98970.28;;;12.05;53.75
35519;BME280;21627;48.216;16.482;2024-03-25T09:44:14;98961.03;;;12.37;53.66
35519;BME280;21627;48.216;16.482;2024-03-25T09:46:40;98959.63;;;12.64;50.81
35519;BME280;21627;48.216;16.482;2024-03-25T09:49:07;98967.22;;;12.72;49.51
35519;BME280;21627;48.216;16.482;2024-03-25T09:51:33;98967.31;;;12.67;49.06
35519;BME280;21627;48.216;16.482;2024-03-25T09:53:59;98962.13;;;12.67;47.85
35519;BME280;21627;48.216;16.482;2024-03-25T09:56:25;98963.19;;;12.99;48.92
35519;BME280;21627;48.216;16.482;2024-03-25T09:58:52;98952.63;;;13.07;48.02
35519;BME280;21627;48.216;16.482;2024-03-25T10:01:19;98957.75;;;13.10;47.26
35519;BME280;21627;48.216;16.482;2024-03-25T10:03:46;98952.53;;;13.49;47.63
35519;BME280;21627;48.216;16.482;2024-03-25T10:06:12;98958.09;;;13.68;47.16
35519;BME280;21627;48.216;16.482;2024-03-25T10:08:41;98956.66;;;13.90;44.82
35519;BME280;21627;48.216;16.482;2024-03-25T10:11:07;98960.06;;;13.94;46.05
35519;BME280;21627;48.216;16.482;2024-03-25T10:13:34;98957.28;;;14.31;45.09
35519;BME280;21627;48.216;16.482;2024-03-25T10:16:00;98963.47;;;14.27;45.11
35519;BME280;21627;48.216;16.482;2024-03-25T10:18:26;98955.59;;;13.97;45.53
35519;BME280;21627;48.216;16.482;2024-03-25T10:20:54;98959.38;;;13.85;46.95
35519;BME280;21627;48.216;16.482;2024-03-25T10:23:23;98952.56;;;13.47;44.95
35519;BME280;21627;48.216;16.482;2024-03-25T10:25:52;98945.22;;;13.29;47.73
35519;BME280;21627;48.216;16.482;2024-03-25T10:28:19;98945.44;;;13.55;47.68
35519;BME280;21627;48.216;16.482;2024-03-25T10:30:45;98935.13;;;13.85;46.16
35519;BME280;21627;48.216;16.482;2024-03-25T10:33:12;98942.78;;;14.24;45.28
35519;BME280;21627;48.216;16.482;2024-03-25T10:35:40;98930.19;;;14.40;42.55
35519;BME280;21627;48.216;16.482;2024-03-25T10:38:08;98945.97;;;14.63;42.28
35519;BME280;21627;48.216;16.482;2024-03-25T10:40:38;98945.94;;;14.34;41.25
35519;BME280;21627;48.216;16.482;2024-03-25T10:43:09;98953.69;;;14.37;41.49
35519;BME280;21627;48.216;16.482;2024-03-25T10:45:49;98933.00;;;14.32;41.74
35519;BME280;21627;48.216;16.482;2024-03-25T10:48:28;98948.94;;;13.89;42.89
35519;BME280;21627;48.216;16.482;2024-03-25T10:50:56;98949.25;;;13.40;43.92
35519;BME280;21627;48.216;16.482;2024-03-25T10:53:22;98943.19;;;13.03;44.71
35519;BME280;21627;48.216;16.482;2024-03-25T10:55:56;98933.22;;;13.59;45.31
35519;BME280;21627;48.216;16.482;2024-03-25T10:58:23;98941.78;;;13.95;45.13
35519;BME280;21627;48.216;16.482;2024-03-25T11:00:52;98949.59;;;14.59;44.21
35519;BME280;21627;48.216;16.482;2024-03-25T11:03:25;98955.22;;;14.74;42.49
35519;BME280;21627;48.216;16.482;2024-03-25T11:05:52;98937.69;;;14.80;41.05
35519;BME280;21627;48.216;16.482;2024-03-25T11:08:18;98941.06;;;14.54;40.97
35519;BME280;21627;48.216;16.482;2024-03-25T11:10:46;98942.94;;;14.49;42.77
35519;BME280;21627;48.216;16.482;2024-03-25T11:13:19;98939.13;;;14.29;42.46
35519;BME280;21627;48.216;16.482;2024-03-25T11:15:48;98931.16;;;14.67;43.06
35519;BME280;21627;48.216;16.482;2024-03-25T11:18:16;98922.44;;;14.96;40.36
35519;BME280;21627;48.216;16.482;2024-03-25T11:20:44;98915.03;;;15.37;42.17
35519;BME280;21627;48.216;16.482;2024-03-25T11:23:12;98928.75;;;15.17;40.02
35519;BME280;21627;48.216;16.482;2024-03-25T11:25:40;98922.06;;;14.50;40.90
35519;BME280;21627;48.216;16.482;2024-03-25T11:28:08;98918.22;;;13.70;42.93
35519;BME280;21627;48.216;16.482;2024-03-25T11:30:37;98923.63;;;13.25;41.75
35519;BME280;21627;48.216;16.482;2024-03-25T11:33:04;98915.16;;;13.54;44.01
35519;BME280;21627;48.216;16.482;2024-03-25T11:35:36;98922.94;;;13.56;42.63
35519;BME280;21627;48.216;16.482;2024-03-25T11:38:02;98910.44;;;14.33;41.12
35519;BME280;21627;48.216;16.482;2024-03-25T11:40:29;98909.53;;;14.34;38.48
35519;BME280;21627;48.216;16.482;2024-03-25T11:42:55;98913.28;;;13.94;40.37
35519;BME280;21627;48.216;16.482;2024-03-25T11:45:22;98906.22;;;13.66;40.54
35519;BME280;21627;48.216;16.482;2024-03-25T11:47:49;98905.50;;;13.59;41.32
35519;BME280;21627;48.216;16.482;2024-03-25T11:50:17;98916.94;;;13.85;42.99
35519;BME280;21627;48.216;16.482;2024-03-25T11:52:44;98909.63;;;14.31;41.99
35519;BME280;21627;48.216;16.482;2024-03-25T11:55:11;98917.56;;;14.57;43.33
35519;BME280;21627;48.216;16.482;2024-03-25T11:57:42;98919.16;;;15.18;40.24
35519;BME280;21627;48.216;16.482;2024-03-25T12:00:09;98918.78;;;15.30;39.78
35519;BME280;21627;48.216;16.482;2024-03-25T12:02:45;98904.91;;;15.81;37.26
35519;BME280;21627;48.216;16.482;2024-03-25T12:05:11;98919.78;;;16.02;37.56
35519;BME280;21627;48.216;16.482;2024-03-25T12:07:38;98914.31;;;15.60;38.51
35519;BME280;21627;48.216;16.482;2024-03-25T12:10:05;98902.75;;;15.15;37.62
35519;BME280;21627;48.216;16.482;2024-03-25T12:12:49;98911.22;;;14.66;39.06
35519;BME280;21627;48.216;16.482;2024-03-25T12:15:19;98909.16;;;14.77;40.52
35519;BME280;21627;48.216;16.482;2024-03-25T12:17:46;98915.59;;;14.03;39.76
35519;BME280;21627;48.216;16.482;2024-03-25T12:20:13;98906.00;;;13.74;41.60
35519;BME280;21627;48.216;16.482;2024-03-25T12:22:41;98912.84;;;14.39;40.71
35519;BME280;21627;48.216;16.482;2024-03-25T12:25:08;98910.44;;;14.92;42.27
35519;BME280;21627;48.216;16.482;2024-03-25T12:27:39;98905.03;;;14.70;41.39
35519;BME280;21627;48.216;16.482;2024-03-25T12:30:10;98904.94;;;14.14;40.43
35519;BME280;21627;48.216;16.482;2024-03-25T12:32:44;98904.91;;;13.82;41.41
35519;BME280;21627;48.216;16.482;2024-03-25T12:35:15;98900.09;;;14.61;42.57
35519;BME280;21627;48.216;16.482;2024-03-25T12:37:44;98907.69;;;15.23;37.74
35519;BME280;21627;48.216;16.482;2024-03-25T12:40:13;98895.72;;;15.18;36.62
35519;BME280;21627;48.216;16.482;2024-03-25T12:42:40;98896.00;;;14.52;37.49
35519;BME280;21627;48.216;16.482;2024-03-25T12:45:07;98889.25;;;14.15;38.64
35519;BME280;21627;48.216;16.482;2024-03-25T12:47:34;98893.13;;;13.69;39.39
35519;BME280;21627;48.216;16.482;2024-03-25T12:50:00;98895.44;;;13.47;40.67
35519;BME280;21627;48.216;16.482;2024-03-25T12:52:26;98887.63;;;13.13;40.84